Time;durP1;ratioP1;P1;durP2;ratioP2;P2;SDS_P1;SDS_P2;PMS_P1;PMS_P2;Temp;Humidity;BMP_temperature;BMP_pressure;BME280_temperature;BME280_humidity;BME280_pressure;Samples;Min_cycle;Max_cycle;Signal;HPM_P1;HPM_P2
2021/12/12 00:01:44;;;;;;;27.62;12.70;;;;;;;;;;1905316;75;21548;-40
2021/12/12 00:04:15;;;;;;;67.40;18.42;;;;;;;;;;1905220;75;21098;-40
2021/12/12 00:06:45;;;;;;;39.75;16.32;;;;;;;;;;1905188;75;21077;-40
2021/12/12 00:09:16;;;;;;;64.47;15.78;;;;;;;;;;1905152;75;21015;-40
2021/12/12 00:11:45;;;;;;;67.12;16.65;;;;;;;;;;1904661;75;21047;-40
2021/12/12 00:14:18;;;;;;;44.03;13.83;;;;;;;;;;1905131;75;21027;-40
2021/12/12 00:16:46;;;;;;;48.20;15.45;;;;;;;;;;1905310;75;21032;-41
2021/12/12 00:19:16;;;;;;;40.90;14.83;;;;;;;;;;1905332;75;21047;-41
2021/12/12 00:21:46;;;;;;;42.48;14.73;;;;;;;;;;1905148;75;21101;-41
2021/12/12 00:24:16;;;;;;;38.17;14.53;;;;;;;;;;1905156;74;21097;-40
2021/12/12 00:26:46;;;;;;;58.35;16.52;;;;;;;;;;1905275;75;21023;-41
2021/12/12 00:29:16;;;;;;;37.55;12.95;;;;;;;;;;1905261;75;21019;-41
2021/12/12 00:31:46;;;;;;;37.17;14.83;;;;;;;;;;1905169;75;20988;-41
2021/12/12 00:34:15;;;;;;;68.20;14.65;;;;;;;;;;1905258;75;21152;-41
2021/12/12 00:36:44;;;;;;;40.25;14.40;;;;;;;;;;1905242;75;21031;-41
2021/12/12 00:39:14;;;;;;;42.35;15.35;;;;;;;;;;1905155;75;21078;-41
2021/12/12 00:41:47;;;;;;;50.98;14.47;;;;;;;;;;1905217;75;21051;-40
2021/12/12 00:44:16;;;;;;;50.00;13.83;;;;;;;;;;1905278;75;21085;-41
2021/12/12 00:46:45;;;;;;;37.20;13.25;;;;;;;;;;1905286;75;21019;-41
2021/12/12 00:49:14;;;;;;;44.73;14.00;;;;;;;;;;1905157;75;21023;-38
2021/12/12 00:51:44;;;;;;;24.95;12.70;;;;;;;;;;1905253;75;21043;-40
2021/12/12 00:54:14;;;;;;;32.00;13.60;;;;;;;;;;1905366;75;21097;-40
2021/12/12 00:56:43;;;;;;;42.15;13.30;;;;;;;;;;1920928;74;21123;-40
2021/12/12 00:59:12;;;;;;;35.78;13.70;;;;;;;;;;1924746;74;21097;-40
2021/12/12 01:01:45;;;;;;;27.58;12.70;;;;;;;;;;1924735;74;21074;-40
2021/12/12 01:04:18;;;;;;;32.80;14.07;;;;;;;;;;1924745;74;21073;-40
2021/12/12 01:06:48;;;;;;;27.80;12.85;;;;;;;;;;1923954;74;21105;-40
2021/12/12 01:09:19;;;;;;;28.02;14.10;;;;;;;;;;1924738;74;21112;-39
2021/12/12 01:11:49;;;;;;;26.68;12.95;;;;;;;;;;1924738;74;21030;-40
2021/12/12 01:14:19;;;;;;;21.23;12.33;;;;;;;;;;1924643;74;21010;-40
2021/12/12 01:16:49;;;;;;;24.25;13.00;;;;;;;;;;1924756;74;21066;-39
2021/12/12 01:19:19;;;;;;;20.62;12.07;;;;;;;;;;1924668;74;21046;-40
2021/12/12 01:21:49;;;;;;;24.47;13.75;;;;;;;;;;1923872;74;21075;-40
2021/12/12 01:24:19;;;;;;;26.35;14.33;;;;;;;;;;1924751;74;21050;-40
2021/12/12 01:26:48;;;;;;;24.70;13.43;;;;;;;;;;1924737;74;21023;-40
2021/12/12 01:29:17;;;;;;;25.40;12.93;;;;;;;;;;1924755;74;21088;-40
2021/12/12 01:31:47;;;;;;;24.82;13.98;;;;;;;;;;1924779;74;21038;-40
2021/12/12 01:34:17;;;;;;;26.30;14.25;;;;;;;;;;1924657;74;21159;-40
2021/12/12 01:39:34;;;;;;;28.35;14.73;;;;;;;;;;1924673;74;21129;-40
2021/12/12 01:42:07;;;;;;;30.43;14.45;;;;;;;;;;1923741;74;21023;-39
2021/12/12 01:44:40;;;;;;;32.67;14.73;;;;;;;;;;1924719;74;21038;-40
2021/12/12 01:47:13;;;;;;;28.73;14.25;;;;;;;;;;1924698;74;21026;-40
2021/12/12 01:49:43;;;;;;;25.52;13.65;;;;;;;;;;1924638;74;21132;-40
2021/12/12 01:52:13;;;;;;;30.08;15.75;;;;;;;;;;1924751;74;21076;-40
2021/12/12 01:54:44;;;;;;;25.88;13.95;;;;;;;;;;1924662;74;21050;-39
2021/12/12 01:57:14;;;;;;;30.05;13.48;;;;;;;;;;1908500;74;21117;-40
2021/12/12 01:59:44;;;;;;;33.10;15.18;;;;;;;;;;1904537;74;21090;-40
2021/12/12 02:02:14;;;;;;;27.10;14.75;;;;;;;;;;1905452;75;21153;-39
2021/12/12 02:04:45;;;;;;;25.88;13.58;;;;;;;;;;1905260;75;21015;-40
2021/12/12 02:07:14;;;;;;;34.00;13.38;;;;;;;;;;1905413;75;20995;-40
2021/12/12 02:09:43;;;;;;;17.75;9.38;;;;;;;;;;1905277;74;21083;-40
2021/12/12 02:12:12;;;;;;;28.38;13.98;;;;;;;;;;1905336;75;21075;-40
2021/12/12 02:14:42;;;;;;;27.95;14.03;;;;;;;;;;1905288;75;21007;-39
2021/12/12 02:17:16;;;;;;;35.68;14.65;;;;;;;;;;1905221;75;21019;-40
2021/12/12 02:20:01;;;;;;;28.10;13.62;;;;;;;;;;1905192;74;21090;-40
2021/12/12 02:36:13;;;;;;;28.65;13.80;;;;;;;;;;1905238;75;21082;-40
2021/12/12 02:38:42;;;;;;;29.37;14.47;;;;;;;;;;1905201;75;21095;-40
2021/12/12 02:41:12;;;;;;;30.50;14.53;;;;;;;;;;1905261;75;21133;-40
2021/12/12 02:43:42;;;;;;;27.13;13.62;;;;;;;;;;1905590;75;21500;-40
2021/12/12 02:46:13;;;;;;;28.98;13.32;;;;;;;;;;1904367;74;21051;-40
2021/12/12 02:48:42;;;;;;;28.07;14.85;;;;;;;;;;1905357;74;21016;-39
2021/12/12 02:51:12;;;;;;;25.97;11.83;;;;;;;;;;1905328;75;21031;-40
2021/12/12 02:53:41;;;;;;;25.32;12.93;;;;;;;;;;1905243;75;20992;-40
2021/12/12 02:56:15;;;;;;;22.80;13.00;;;;;;;;;;1909763;74;21584;-40
2021/12/12 02:58:44;;;;;;;27.32;14.33;;;;;;;;;;1924541;74;21141;-40
2021/12/12 03:01:32;;;;;;;25.65;13.80;;;;;;;;;;1924575;74;21147;-40
2021/12/12 03:04:01;;;;;;;23.77;12.65;;;;;;;;;;1924549;74;21038;-40
2021/12/12 03:06:31;;;;;;;25.15;13.20;;;;;;;;;;1924588;74;20994;-40
2021/12/12 03:09:04;;;;;;;22.35;12.30;;;;;;;;;;1924654;74;21547;-40
2021/12/12 03:11:33;;;;;;;24.00;12.47;;;;;;;;;;1923904;74;21050;-39
2021/12/12 03:14:01;;;;;;;29.37;12.75;;;;;;;;;;1924621;74;21070;-40
2021/12/12 03:16:31;;;;;;;25.92;13.38;;;;;;;;;;1924558;74;21007;-39
2021/12/12 03:18:59;;;;;;;29.45;13.13;;;;;;;;;;1924722;74;21023;-40
2021/12/12 03:21:32;;;;;;;26.90;13.72;;;;;;;;;;1924569;74;21089;-39
2021/12/12 03:24:03;;;;;;;32.23;14.70;;;;;;;;;;1924562;74;21027;-40
2021/12/12 03:26:32;;;;;;;38.70;13.53;;;;;;;;;;1924785;74;21383;-40
2021/12/12 03:29:01;;;;;;;34.13;14.83;;;;;;;;;;1924515;74;21089;-40
2021/12/12 03:31:31;;;;;;;20.50;10.43;;;;;;;;;;1924675;74;21092;-40
2021/12/12 03:34:00;;;;;;;30.32;14.60;;;;;;;;;;1924613;74;21046;-40
2021/12/12 03:36:29;;;;;;;26.70;15.10;;;;;;;;;;1924675;74;21022;-40
2021/12/12 03:38:59;;;;;;;27.15;13.40;;;;;;;;;;1924670;74;21100;-40
2021/12/12 03:41:29;;;;;;;28.02;12.75;;;;;;;;;;1923362;74;21171;-40
2021/12/12 03:43:59;;;;;;;29.50;15.00;;;;;;;;;;1924584;74;21108;-40
2021/12/12 03:46:28;;;;;;;36.17;13.88;;;;;;;;;;1924668;74;21072;-41
2021/12/12 03:48:57;;;;;;;29.63;14.85;;;;;;;;;;1924524;74;21007;-40
2021/12/12 03:51:27;;;;;;;42.53;14.53;;;;;;;;;;1924692;74;21023;-40
2021/12/12 03:53:56;;;;;;;29.07;14.23;;;;;;;;;;1924747;74;21453;-40
2021/12/12 03:56:25;;;;;;;29.60;12.73;;;;;;;;;;1921769;74;21019;-40
2021/12/12 03:58:55;;;;;;;25.30;13.65;;;;;;;;;;1905413;75;21497;-40
2021/12/12 04:01:28;;;;;;;20.05;11.10;;;;;;;;;;1905355;75;21031;-40
2021/12/12 04:03:57;;;;;;;32.20;15.05;;;;;;;;;;1905363;75;21011;-40
2021/12/12 04:06:27;;;;;;;20.92;12.55;;;;;;;;;;1905360;75;21016;-40
2021/12/12 04:08:56;;;;;;;30.35;13.53;;;;;;;;;;1905353;75;21082;-40
2021/12/12 04:11:32;;;;;;;23.90;13.30;;;;;;;;;;1905190;75;21011;-40
2021/12/12 04:14:03;;;;;;;20.25;11.80;;;;;;;;;;1904136;74;21109;-40
2021/12/12 04:16:33;;;;;;;30.72;15.40;;;;;;;;;;1905256;75;21044;-40
2021/12/12 04:19:02;;;;;;;23.55;13.08;;;;;;;;;;1905190;75;21528;-40
2021/12/12 04:21:31;;;;;;;27.60;15.18;;;;;;;;;;1905193;74;21023;-40
2021/12/12 04:24:00;;;;;;;25.23;13.83;;;;;;;;;;1905337;75;21031;-40
2021/12/12 04:26:30;;;;;;;29.18;15.05;;;;;;;;;;1905172;75;21093;-40
2021/12/12 04:29:03;;;;;;;29.77;15.80;;;;;;;;;;1904402;75;21101;-40
2021/12/12 04:31:32;;;;;;;28.23;13.72;;;;;;;;;;1905228;75;21015;-40
2021/12/12 04:34:01;;;;;;;25.65;14.65;;;;;;;;;;1905126;75;21101;-40
2021/12/12 04:36:31;;;;;;;27.93;14.63;;;;;;;;;;1905119;75;21011;-41
2021/12/12 04:39:10;;;;;;;25.10;13.45;;;;;;;;;;1905269;75;21019;-40
2021/12/12 04:41:40;;;;;;;27.15;13.72;;;;;;;;;;1905229;75;20991;-40
2021/12/12 04:44:09;;;;;;;27.52;15.30;;;;;;;;;;1905291;75;21504;-40
2021/12/12 04:49:55;;;;;;;37.08;16.80;;;;;;;;;;1905234;75;21008;-40
2021/12/12 04:52:02;;;;;;;24.52;14.10;;;;;;;;;;1905181;74;21586;-40
2021/12/12 04:54:35;;;;;;;23.90;11.53;;;;;;;;;;1905230;75;21019;-41
2021/12/12 04:57:05;;;;;;;23.35;11.45;;;;;;;;;;1905363;74;21051;-41
2021/12/12 04:59:44;;;;;;;27.90;14.03;;;;;;;;;;1905232;75;21153;-41
2021/12/12 05:02:20;;;;;;;22.62;12.23;;;;;;;;;;1905117;75;21090;-41
2021/12/12 05:04:50;;;;;;;25.75;14.15;;;;;;;;;;1904781;74;21085;-41
2021/12/12 05:07:23;;;;;;;23.27;13.30;;;;;;;;;;1905182;75;21018;-41
2021/12/12 05:09:53;;;;;;;17.27;9.70;;;;;;;;;;1904917;74;21058;-41
2021/12/12 05:12:23;;;;;;;17.73;9.33;;;;;;;;;;1905073;75;21090;-41
2021/12/12 05:14:56;;;;;;;22.75;13.15;;;;;;;;;;1904117;74;21098;-41
2021/12/12 05:17:26;;;;;;;32.10;12.93;;;;;;;;;;1905137;75;21020;-41
2021/12/12 05:19:56;;;;;;;30.62;16.75;;;;;;;;;;1905231;75;21024;-41
2021/12/12 05:22:32;;;;;;;25.05;13.22;;;;;;;;;;1905097;75;21019;-41
2021/12/12 05:25:02;;;;;;;23.95;13.00;;;;;;;;;;1894851;74;21077;-41
2021/12/12 05:27:32;;;;;;;23.15;12.50;;;;;;;;;;1905191;75;21077;-41
2021/12/12 05:30:01;;;;;;;27.45;14.38;;;;;;;;;;1905011;75;21085;-41
2021/12/12 05:32:31;;;;;;;21.23;11.40;;;;;;;;;;1904523;74;21059;-41
2021/12/12 05:35:00;;;;;;;19.52;11.88;;;;;;;;;;1905237;74;21019;-41
2021/12/12 05:37:29;;;;;;;20.82;11.35;;;;;;;;;;1905315;75;21023;-41
2021/12/12 05:40:02;;;;;;;26.17;14.05;;;;;;;;;;1905463;74;21081;-41
2021/12/12 05:42:31;;;;;;;22.10;13.03;;;;;;;;;;1905509;75;21017;-41
2021/12/12 05:45:01;;;;;;;23.95;12.58;;;;;;;;;;1905459;75;21008;-41
2021/12/12 05:47:29;;;;;;;24.20;12.18;;;;;;;;;;1905296;75;21086;-41
2021/12/12 05:50:00;;;;;;;24.05;13.75;;;;;;;;;;1905426;75;21077;-40
2021/12/12 05:52:28;;;;;;;20.95;12.75;;;;;;;;;;1905282;75;20995;-40
2021/12/12 05:54:57;;;;;;;21.27;12.63;;;;;;;;;;1905412;75;21024;-41
2021/12/12 05:57:27;;;;;;;27.07;14.47;;;;;;;;;;1905191;74;21035;-41
2021/12/12 05:59:57;;;;;;;26.77;14.13;;;;;;;;;;1905511;75;21023;-40
2021/12/12 06:02:27;;;;;;;24.15;14.03;;;;;;;;;;1905380;75;21482;-41
2021/12/12 06:04:57;;;;;;;13.68;8.63;;;;;;;;;;1905316;75;21091;-41
2021/12/12 06:07:26;;;;;;;30.30;16.80;;;;;;;;;;1905436;75;21028;-41
2021/12/12 06:09:55;;;;;;;21.82;12.98;;;;;;;;;;1905392;75;21028;-41
2021/12/12 06:12:24;;;;;;;32.95;15.80;;;;;;;;;;1905281;74;21000;-41
2021/12/12 06:14:53;;;;;;;19.70;10.23;;;;;;;;;;1905413;75;21132;-41
2021/12/12 06:17:22;;;;;;;28.32;14.63;;;;;;;;;;1905382;75;21314;-41
2021/12/12 06:19:51;;;;;;;33.33;15.50;;;;;;;;;;1905410;75;21089;-41
2021/12/12 06:22:21;;;;;;;25.80;14.58;;;;;;;;;;1905411;75;21097;-41
2021/12/12 06:24:51;;;;;;;27.58;13.72;;;;;;;;;;1905222;74;20995;-41
2021/12/12 06:27:20;;;;;;;26.97;14.23;;;;;;;;;;1905300;75;21102;-41
2021/12/12 06:29:50;;;;;;;25.37;13.95;;;;;;;;;;1905258;75;21081;-40
2021/12/12 06:32:20;;;;;;;23.15;11.00;;;;;;;;;;1905301;75;21024;-41
2021/12/12 06:34:50;;;;;;;27.50;15.63;;;;;;;;;;1905339;75;21085;-41
2021/12/12 06:37:19;;;;;;;24.92;12.95;;;;;;;;;;1905159;75;21548;-41
2021/12/12 06:39:47;;;;;;;29.00;15.63;;;;;;;;;;1905361;75;21035;-41
2021/12/12 06:42:16;;;;;;;25.05;14.18;;;;;;;;;;1905257;75;21008;-41
2021/12/12 06:44:46;;;;;;;28.62;16.15;;;;;;;;;;1905238;75;21020;-41
2021/12/12 06:47:16;;;;;;;21.10;10.82;;;;;;;;;;1905379;75;21097;-41
2021/12/12 06:49:45;;;;;;;26.35;13.90;;;;;;;;;;1905095;75;21015;-41
2021/12/12 06:52:14;;;;;;;27.35;15.05;;;;;;;;;;1905293;74;21027;-41
2021/12/12 06:54:43;;;;;;;25.23;13.70;;;;;;;;;;1905296;75;21120;-41
2021/12/12 06:57:13;;;;;;;24.37;14.28;;;;;;;;;;1905297;74;21074;-40
2021/12/12 06:59:44;;;;;;;30.32;13.15;;;;;;;;;;1921491;74;21089;-41
2021/12/12 07:02:12;;;;;;;22.62;12.28;;;;;;;;;;1924649;74;21101;-41
2021/12/12 07:04:42;;;;;;;23.55;12.75;;;;;;;;;;1924821;74;21011;-41
2021/12/12 07:07:13;;;;;;;24.90;13.45;;;;;;;;;;1924555;74;21033;-41
2021/12/12 07:09:42;;;;;;;20.12;11.38;;;;;;;;;;1924552;74;21101;-41
2021/12/12 07:12:12;;;;;;;23.20;13.50;;;;;;;;;;1924683;74;21034;-41
2021/12/12 07:14:41;;;;;;;20.75;10.25;;;;;;;;;;1924612;74;21031;-41
2021/12/12 07:17:10;;;;;;;27.73;13.95;;;;;;;;;;1924646;74;21080;-41
2021/12/12 07:19:40;;;;;;;25.25;13.20;;;;;;;;;;1924665;74;21027;-41
2021/12/12 07:22:09;;;;;;;28.83;15.40;;;;;;;;;;1924468;74;21022;-41
2021/12/12 07:24:38;;;;;;;24.77;13.50;;;;;;;;;;1924653;74;21031;-41
2021/12/12 07:27:07;;;;;;;25.92;13.08;;;;;;;;;;1924611;74;21019;-40
2021/12/12 07:29:36;;;;;;;24.72;13.58;;;;;;;;;;1924784;74;21026;-41
2021/12/12 07:32:05;;;;;;;23.18;12.15;;;;;;;;;;1924659;74;21026;-41
2021/12/12 07:34:34;;;;;;;28.02;15.32;;;;;;;;;;1924664;74;21084;-41
2021/12/12 07:37:03;;;;;;;28.25;14.90;;;;;;;;;;1924713;74;21066;-41
2021/12/12 07:39:32;;;;;;;24.90;13.78;;;;;;;;;;1924722;74;21512;-41
2021/12/12 07:42:03;;;;;;;30.30;15.72;;;;;;;;;;1924658;74;21108;-41
2021/12/12 07:44:34;;;;;;;21.27;12.55;;;;;;;;;;1924527;74;21046;-41
2021/12/12 07:47:03;;;;;;;22.75;10.70;;;;;;;;;;1924664;74;21496;-41
2021/12/12 07:49:33;;;;;;;24.72;12.93;;;;;;;;;;1924654;74;21097;-40
2021/12/12 07:52:03;;;;;;;24.87;13.15;;;;;;;;;;1924527;74;21049;-41
2021/12/12 07:54:32;;;;;;;22.67;11.95;;;;;;;;;;1924636;74;21034;-41
2021/12/12 07:57:01;;;;;;;13.25;9.30;;;;;;;;;;1924687;74;21093;-41
2021/12/12 07:59:31;;;;;;;21.23;10.18;;;;;;;;;;1924608;74;21113;-41
2021/12/12 08:02:00;;;;;;;24.02;12.35;;;;;;;;;;1924516;74;21080;-40
2021/12/12 08:04:30;;;;;;;26.65;14.20;;;;;;;;;;1924576;74;21027;-41
2021/12/12 08:07:00;;;;;;;22.22;13.30;;;;;;;;;;1924637;74;21077;-41
2021/12/12 08:09:29;;;;;;;24.27;14.18;;;;;;;;;;1924573;74;20990;-41
2021/12/12 08:11:58;;;;;;;23.57;11.25;;;;;;;;;;1924589;74;21143;-41
2021/12/12 08:14:28;;;;;;;14.63;9.85;;;;;;;;;;1924584;74;21050;-41
2021/12/12 08:16:57;;;;;;;13.45;9.85;;;;;;;;;;1924546;74;21023;-41
2021/12/12 08:19:27;;;;;;;20.23;12.18;;;;;;;;;;1924554;74;21007;-41
2021/12/12 08:22:00;;;;;;;22.13;13.72;;;;;;;;;;1924558;74;21104;-41
2021/12/12 08:24:29;;;;;;;24.87;13.83;;;;;;;;;;1923482;74;21022;-42
2021/12/12 08:26:58;;;;;;;24.70;14.30;;;;;;;;;;1924632;74;21026;-41
2021/12/12 08:29:27;;;;;;;24.05;12.18;;;;;;;;;;1924524;74;21394;-41
2021/12/12 08:31:56;;;;;;;19.73;11.30;;;;;;;;;;1924582;74;21031;-41
2021/12/12 08:34:26;;;;;;;17.25;10.75;;;;;;;;;;1924613;74;21092;-41
2021/12/12 08:36:56;;;;;;;16.40;11.05;;;;;;;;;;1924481;74;21104;-41
2021/12/12 08:39:27;;;;;;;21.37;13.70;;;;;;;;;;1924586;74;21088;-41
2021/12/12 08:41:56;;;;;;;18.12;10.20;;;;;;;;;;1924495;74;21582;-41
2021/12/12 08:44:25;;;;;;;22.55;13.43;;;;;;;;;;1924559;74;20995;-41
2021/12/12 08:46:55;;;;;;;24.82;13.80;;;;;;;;;;1924541;74;21047;-41
2021/12/12 08:49:25;;;;;;;24.37;10.48;;;;;;;;;;1924658;74;21022;-41
2021/12/12 08:51:58;;;;;;;25.52;15.70;;;;;;;;;;1924569;74;21457;-40
2021/12/12 08:54:28;;;;;;;25.17;14.80;;;;;;;;;;1924576;74;21084;-41
2021/12/12 08:57:02;;;;;;;20.65;13.22;;;;;;;;;;1924487;74;21100;-40
2021/12/12 08:59:29;;;;;;;25.23;13.10;;;;;;;;;;1917861;74;21031;-41
2021/12/12 09:01:59;;;;;;;17.12;9.93;;;;;;;;;;1905203;75;21093;-41
2021/12/12 09:04:32;;;;;;;22.52;13.60;;;;;;;;;;1905186;75;21016;-41
2021/12/12 09:07:08;;;;;;;23.50;13.13;;;;;;;;;;1905110;75;21454;-41
2021/12/12 09:09:38;;;;;;;24.47;13.68;;;;;;;;;;1905184;75;21114;-41
2021/12/12 09:12:07;;;;;;;22.73;14.15;;;;;;;;;;1904461;74;21019;-41
2021/12/12 09:14:40;;;;;;;27.32;13.62;;;;;;;;;;1905259;75;20987;-41
2021/12/12 09:17:10;;;;;;;22.50;13.18;;;;;;;;;;1890001;75;21065;-37
2021/12/12 09:19:52;;;;;;;29.02;13.15;;;;;;;;;;1905197;75;21171;-39
2021/12/12 09:22:25;;;;;;;25.48;14.60;;;;;;;;;;1905282;75;21144;-39
2021/12/12 09:24:56;;;;;;;27.05;16.57;;;;;;;;;;1905211;75;21566;-39
2021/12/12 09:27:30;;;;;;;35.58;16.55;;;;;;;;;;1904328;74;21020;-39
2021/12/12 09:30:00;;;;;;;24.65;13.18;;;;;;;;;;1905307;75;21075;-39
2021/12/12 09:32:32;;;;;;;25.25;13.62;;;;;;;;;;1905350;75;21537;-39
2021/12/12 09:35:14;;;;;;;21.87;12.25;;;;;;;;;;1905218;75;21098;-39
2021/12/12 09:37:44;;;;;;;22.40;13.65;;;;;;;;;;1905293;75;21086;-39
2021/12/12 09:40:17;;;;;;;28.35;16.35;;;;;;;;;;1904899;75;21091;-39
2021/12/12 09:43:04;;;;;;;25.50;12.25;;;;;;;;;;1904753;74;21027;-39
2021/12/12 09:45:40;;;;;;;24.07;12.93;;;;;;;;;;1905159;75;21091;-39
2021/12/12 09:51:17;;;;;;;30.10;12.80;;;;;;;;;;1905175;75;21043;-40
2021/12/12 09:54:00;;;;;;;27.73;11.45;;;;;;;;;;1905125;75;21039;-39
2021/12/12 09:56:35;;;;;;;20.45;11.08;;;;;;;;;;1904936;74;21032;-40
2021/12/12 09:59:11;;;;;;;21.37;11.65;;;;;;;;;;1905183;75;21023;-40
2021/12/12 10:01:41;;;;;;;20.90;10.63;;;;;;;;;;1904692;74;21019;-40
2021/12/12 10:04:11;;;;;;;22.93;11.20;;;;;;;;;;1905143;74;21077;-40
2021/12/12 10:06:47;;;;;;;17.65;11.90;;;;;;;;;;1904588;74;21020;-40
2021/12/12 10:09:17;;;;;;;19.87;9.03;;;;;;;;;;1905166;74;20988;-40
2021/12/12 10:11:56;;;;;;;21.77;11.15;;;;;;;;;;1905097;75;21016;-40
2021/12/12 10:14:25;;;;;;;26.97;12.82;;;;;;;;;;1905223;74;21082;-40
2021/12/12 10:16:55;;;;;;;18.25;11.25;;;;;;;;;;1904988;75;20996;-40
2021/12/12 10:19:41;;;;;;;17.70;10.23;;;;;;;;;;1905285;75;21051;-40
2021/12/12 10:22:17;;;;;;;28.12;15.50;;;;;;;;;;1904943;75;21055;-40
2021/12/12 10:24:53;;;;;;;17.40;10.63;;;;;;;;;;1905188;75;21015;-40
2021/12/12 10:27:26;;;;;;;30.30;10.60;;;;;;;;;;1905166;75;21040;-40
2021/12/12 10:29:59;;;;;;;19.23;11.45;;;;;;;;;;1905228;75;21016;-40
2021/12/12 10:32:32;;;;;;;19.62;11.73;;;;;;;;;;1889724;75;20991;-39
2021/12/12 10:35:02;;;;;;;21.77;12.03;;;;;;;;;;1905314;75;21122;-40
2021/12/12 10:37:51;;;;;;;24.05;13.15;;;;;;;;;;1904289;74;21047;-40
2021/12/12 10:40:20;;;;;;;35.25;18.55;;;;;;;;;;1905158;75;20991;-40
2021/12/12 10:42:50;;;;;;;24.18;13.88;;;;;;;;;;1905282;75;21020;-40
2021/12/12 10:45:20;;;;;;;20.60;11.75;;;;;;;;;;1905169;74;21015;-40
2021/12/12 10:47:57;;;;;;;21.17;12.95;;;;;;;;;;1905239;75;21114;-40
2021/12/12 10:50:33;;;;;;;20.72;10.53;;;;;;;;;;1905259;75;21073;-40
2021/12/12 10:53:09;;;;;;;22.25;10.28;;;;;;;;;;1905300;75;21035;-40
2021/12/12 10:55:43;;;;;;;18.77;11.70;;;;;;;;;;1905346;75;21462;-39
2021/12/12 10:58:22;;;;;;;21.57;12.45;;;;;;;;;;1905381;75;21081;-40
2021/12/12 11:01:04;;;;;;;21.68;11.90;;;;;;;;;;1905008;74;21112;-39
2021/12/12 11:03:38;;;;;;;24.67;12.68;;;;;;;;;;1904411;74;21091;-40
2021/12/12 11:06:08;;;;;;;15.65;8.18;;;;;;;;;;1905169;75;21007;-40
2021/12/12 11:08:43;;;;;;;22.05;12.65;;;;;;;;;;1905247;75;21081;-40
2021/12/12 11:11:13;;;;;;;16.40;9.23;;;;;;;;;;1905115;75;20988;-41
2021/12/12 11:13:43;;;;;;;19.98;10.03;;;;;;;;;;1904528;74;21081;-40
2021/12/12 11:16:19;;;;;;;20.75;11.68;;;;;;;;;;1904322;74;21047;-40
2021/12/12 11:18:50;;;;;;;21.02;12.05;;;;;;;;;;1905226;75;21109;-40
2021/12/12 11:21:25;;;;;;;21.65;12.45;;;;;;;;;;1904172;74;21023;-40
2021/12/12 11:23:55;;;;;;;18.45;11.30;;;;;;;;;;1905298;75;21121;-40
2021/12/12 11:26:25;;;;;;;16.90;10.32;;;;;;;;;;1905160;74;21120;-40
2021/12/12 11:28:55;;;;;;;18.17;11.33;;;;;;;;;;1902757;74;21087;-40
2021/12/12 11:31:31;;;;;;;19.07;11.38;;;;;;;;;;1905171;75;20995;-40
2021/12/12 11:33:59;;;;;;;13.45;8.95;;;;;;;;;;1870060;74;21497;-40
2021/12/12 11:36:29;;;;;;;19.27;10.58;;;;;;;;;;1905271;75;21007;-40
2021/12/12 11:39:14;;;;;;;20.32;11.20;;;;;;;;;;1905318;74;21015;-40
2021/12/12 11:41:50;;;;;;;15.98;10.43;;;;;;;;;;1905448;75;20988;-40
2021/12/12 11:44:30;;;;;;;17.95;10.45;;;;;;;;;;1905051;74;21113;-41
2021/12/12 11:47:12;;;;;;;16.60;10.23;;;;;;;;;;1884638;75;21040;-40
2021/12/12 11:49:51;;;;;;;13.40;7.33;;;;;;;;;;1904331;74;21081;-40
2021/12/12 11:52:33;;;;;;;14.65;9.33;;;;;;;;;;1905238;75;21015;-40
2021/12/12 11:55:10;;;;;;;15.13;9.00;;;;;;;;;;1905164;75;21138;-40
2021/12/12 11:57:43;;;;;;;29.40;12.55;;;;;;;;;;1905040;74;21073;-40
2021/12/12 12:00:16;;;;;;;22.00;11.93;;;;;;;;;;1904776;74;21020;-40
2021/12/12 12:03:03;;;;;;;23.50;15.10;;;;;;;;;;1905139;74;20991;-40
2021/12/12 12:05:39;;;;;;;19.40;9.68;;;;;;;;;;1905060;75;21093;-40
2021/12/12 12:08:09;;;;;;;18.10;10.95;;;;;;;;;;1904832;74;21019;-41
2021/12/12 12:10:38;;;;;;;17.80;11.53;;;;;;;;;;1904913;74;21024;-40
2021/12/12 12:13:25;;;;;;;14.73;9.75;;;;;;;;;;1905062;74;21152;-41
2021/12/12 12:15:55;;;;;;;15.85;8.78;;;;;;;;;;1905150;75;21075;-40
2021/12/12 12:18:25;;;;;;;17.75;8.83;;;;;;;;;;1905176;75;21124;-40
2021/12/12 12:21:02;;;;;;;17.45;10.08;;;;;;;;;;1904225;74;21141;-40
2021/12/12 12:23:42;;;;;;;17.37;9.80;;;;;;;;;;1905289;75;21016;-42
2021/12/12 12:28:57;;;;;;;17.98;9.95;;;;;;;;;;1905200;75;21039;-40
2021/12/12 12:31:36;;;;;;;25.68;10.98;;;;;;;;;;1905040;75;21024;-41
2021/12/12 12:34:19;;;;;;;15.05;9.28;;;;;;;;;;1905280;75;21019;-41
2021/12/12 12:36:58;;;;;;;15.72;9.23;;;;;;;;;;1905256;75;21020;-40
2021/12/12 12:39:34;;;;;;;23.07;9.78;;;;;;;;;;1905217;75;21015;-40
2021/12/12 12:42:04;;;;;;;21.12;9.48;;;;;;;;;;1905315;74;21089;-40
2021/12/12 12:44:34;;;;;;;19.05;10.98;;;;;;;;;;1905134;75;21015;-40
2021/12/12 12:47:21;;;;;;;20.43;10.80;;;;;;;;;;1905103;75;21109;-40
2021/12/12 12:50:03;;;;;;;17.12;9.98;;;;;;;;;;1905144;75;21036;-41
2021/12/12 12:52:41;;;;;;;18.30;11.28;;;;;;;;;;1905118;75;21043;-40
2021/12/12 12:55:27;;;;;;;17.95;10.50;;;;;;;;;;1843479;74;21173;-40
2021/12/12 12:58:10;;;;;;;20.10;10.10;;;;;;;;;;1905178;74;21043;-41
2021/12/12 13:00:41;;;;;;;15.68;10.03;;;;;;;;;;1903627;74;21047;-40
2021/12/12 13:03:20;;;;;;;21.57;10.85;;;;;;;;;;1905186;74;21086;-40
2021/12/12 13:06:04;;;;;;;20.72;12.70;;;;;;;;;;1904570;74;21077;-41
2021/12/12 13:08:37;;;;;;;21.93;12.00;;;;;;;;;;1905097;75;21007;-40
2021/12/12 13:11:07;;;;;;;20.02;10.85;;;;;;;;;;1904984;74;21101;-40
2021/12/12 13:13:39;;;;;;;25.00;11.63;;;;;;;;;;1905182;75;21079;-41
2021/12/12 13:16:08;;;;;;;20.60;10.63;;;;;;;;;;1905077;75;21023;-40
2021/12/12 13:18:38;;;;;;;30.80;11.83;;;;;;;;;;1904087;74;21023;-40
2021/12/12 13:21:24;;;;;;;17.23;10.23;;;;;;;;;;1905051;75;21008;-40
2021/12/12 13:24:06;;;;;;;17.07;10.20;;;;;;;;;;1905162;74;21019;-40
2021/12/12 13:26:36;;;;;;;20.20;10.68;;;;;;;;;;1904913;74;21020;-40
2021/12/12 13:29:16;;;;;;;17.77;11.35;;;;;;;;;;1905115;75;21023;-40
2021/12/12 13:31:55;;;;;;;23.85;12.53;;;;;;;;;;1905123;75;21478;-41
2021/12/12 13:34:34;;;;;;;16.35;9.88;;;;;;;;;;1905037;75;21148;-41
2021/12/12 13:37:04;;;;;;;19.52;11.50;;;;;;;;;;1905092;75;21031;-41
2021/12/12 13:39:34;;;;;;;20.57;11.40;;;;;;;;;;1905125;74;21019;-42
2021/12/12 13:42:21;;;;;;;24.72;12.33;;;;;;;;;;1904811;74;21081;-40
2021/12/12 13:45:06;;;;;;;33.85;14.58;;;;;;;;;;1905187;75;21094;-40
2021/12/12 13:47:36;;;;;;;21.55;12.90;;;;;;;;;;1905151;74;21035;-40
2021/12/12 13:50:09;;;;;;;25.77;14.43;;;;;;;;;;1905093;75;21062;-40
2021/12/12 13:52:39;;;;;;;32.38;17.12;;;;;;;;;;1905124;75;21509;-40
2021/12/12 13:55:15;;;;;;;23.18;13.60;;;;;;;;;;1905072;75;21035;-40
2021/12/12 13:57:55;;;;;;;30.52;14.95;;;;;;;;;;1905269;74;21055;-40
2021/12/12 14:00:29;;;;;;;19.77;12.18;;;;;;;;;;1904904;74;21086;-40
2021/12/12 14:02:59;;;;;;;24.25;13.00;;;;;;;;;;1921715;74;21120;-40
2021/12/12 14:05:32;;;;;;;28.07;14.87;;;;;;;;;;1923533;74;21078;-40
2021/12/12 14:08:02;;;;;;;31.10;19.45;;;;;;;;;;1924813;74;21073;-40
2021/12/12 14:10:32;;;;;;;37.13;20.37;;;;;;;;;;1924269;74;21046;-40
2021/12/12 14:13:05;;;;;;;39.80;21.05;;;;;;;;;;1924255;74;21077;-40
2021/12/12 14:15:37;;;;;;;44.85;22.87;;;;;;;;;;1924692;74;21042;-40
2021/12/12 14:18:07;;;;;;;37.38;22.35;;;;;;;;;;1924619;74;21027;-40
2021/12/12 14:20:43;;;;;;;42.93;25.17;;;;;;;;;;1924617;74;21018;-40
2021/12/12 14:23:13;;;;;;;57.00;27.75;;;;;;;;;;1924602;74;21104;-40
2021/12/12 14:25:43;;;;;;;47.23;27.10;;;;;;;;;;1924694;74;21073;-40
2021/12/12 14:28:13;;;;;;;88.92;41.13;;;;;;;;;;1924544;74;21092;-40
2021/12/12 14:30:43;;;;;;;53.98;26.50;;;;;;;;;;1924680;74;21109;-40
2021/12/12 14:33:14;;;;;;;42.05;22.70;;;;;;;;;;1924687;74;21007;-41
2021/12/12 14:35:45;;;;;;;52.55;27.77;;;;;;;;;;1924589;74;21022;-40
2021/12/12 14:38:14;;;;;;;50.50;26.48;;;;;;;;;;1923814;74;21621;-40
2021/12/12 14:40:45;;;;;;;45.40;24.72;;;;;;;;;;1924415;74;21139;-40
2021/12/12 14:43:22;;;;;;;32.42;18.12;;;;;;;;;;1924619;74;21069;-40
2021/12/12 14:45:58;;;;;;;34.23;18.42;;;;;;;;;;1924564;74;21042;-40
2021/12/12 14:48:28;;;;;;;35.25;16.25;;;;;;;;;;1924724;74;20995;-40
2021/12/12 14:50:58;;;;;;;30.70;15.80;;;;;;;;;;1924479;74;21023;-41
2021/12/12 14:53:28;;;;;;;28.35;13.88;;;;;;;;;;1924484;74;21014;-41
2021/12/12 14:55:58;;;;;;;22.93;13.88;;;;;;;;;;1924030;74;21136;-41
2021/12/12 14:58:27;;;;;;;32.42;17.57;;;;;;;;;;1923521;74;21022;-40
2021/12/12 15:00:57;;;;;;;24.12;13.05;;;;;;;;;;1924607;74;21019;-40
2021/12/12 15:03:28;;;;;;;29.77;14.95;;;;;;;;;;1907590;74;21121;-40
2021/12/12 15:06:01;;;;;;;25.25;12.93;;;;;;;;;;1905174;74;20992;-40
2021/12/12 15:08:31;;;;;;;22.60;13.53;;;;;;;;;;1905149;74;21116;-40
2021/12/12 15:11:03;;;;;;;23.42;13.88;;;;;;;;;;1905131;75;21015;-40